Archimede — IXZR — position and weather

sailwx.info

Track history (hours):
 
Tides and Currents Weather Stations Pressure Air Temp Water Temp Dewpoint Dewpoint Depression Visibility Wind Speed Wind Dir Waves Ship Positions

Archimede

Last reported at 2014-Oct-31 07:31 UTC. Time now 2014-Oct-31 08:26 UTC.
Position N 38°09' E 015°36'.

; draft 3.1 m.

Type: Ship. MMSI: 247054700.

Date/timePositionNaut miles runAvg speedWind from/ knotsBaromVisibWave heightAir tempDewpointWater temp
2014-Oct-31 07:31N 38°09' E 015°36'2 1.6
2014-Oct-31 06:34N 38°11' E 015°35'2 0.1
2014-Oct-30 17:30N 38°11' E 015°37'4 3.6
2014-Oct-30 16:20N 38°08' E 015°33'6 8.3
2014-Oct-30 15:33N 38°13' E 015°38'0 0.0
2014-Oct-30 10:24N 38°13' E 015°38'1 0.8
2014-Oct-30 08:32N 38°13' E 015°36'1 1.3
2014-Oct-30 07:33N 38°13' E 015°38'2 0.8
2014-Oct-30 05:31N 38°13' E 015°36'1 0.1
2014-Oct-29 18:33N 38°13' E 015°37'1 0.7
2014-Oct-29 17:33N 38°13' E 015°38'1 0.6
2014-Oct-29 15:31N 38°13' E 015°36'2 1.1
2014-Oct-29 13:31N 38°11' E 015°35'2 1.2
2014-Oct-29 11:24N 38°09' E 015°33'6 7.1
2014-Oct-29 10:33N 38°13' E 015°38'3 2.8
2014-Oct-29 09:23N 38°13' E 015°34'1 1.7
2014-Oct-29 08:33N 38°13' E 015°36'1 1.1
2014-Oct-29 07:33N 38°13' E 015°37'5 4.6
2014-Oct-29 06:25N 38°09' E 015°33'3 0.2
2014-Oct-28 15:32N 38°11' E 015°35'3 1.3
2014-Oct-28 13:33N 38°09' E 015°34'5 5.2
2014-Oct-28 12:30N 38°13' E 015°38'6 4.5
2014-Oct-28 11:10N 38°09' E 015°33'6 9.0
2014-Oct-28 10:33N 38°13' E 015°37'6 3.9
2014-Oct-28 09:04N 38°09' E 015°33'5 9.0
2014-Oct-28 08:32N 38°13' E 015°36'0 0.1
2014-Oct-28 06:30N 38°13' E 015°36'2 0.2
2014-Oct-27 19:06N 38°11' E 015°37'2 0.5
2014-Oct-27 15:33N 38°13' E 015°36'0 0.1
2014-Oct-27 13:25N 38°13' E 015°36'2 1.7
2014-Oct-27 12:27N 38°13' E 015°38'0 0.1
2014-Oct-27 10:33N 38°13' E 015°38'1 0.4
2014-Oct-27 08:30N 38°13' E 015°37'1 0.3
2014-Oct-27 06:32N 38°13' E 015°36'5 0.1
2014-Oct-25 17:06N 38°08' E 015°32'6 8.9
2014-Oct-25 16:29N 38°13' E 015°36'3 1.5
2014-Oct-25 14:33N 38°10' E 015°35'1 0.7
2014-Oct-25 12:26N 38°09' E 015°34'6 6.4
2014-Oct-25 11:33N 38°13' E 015°38'0 0.1
2014-Oct-25 09:33N 38°13' E 015°38'6 3.8
2014-Oct-25 08:03N 38°09' E 015°33'4 8.8
2014-Oct-25 07:33N 38°13' E 015°36'0 0.0
2014-Oct-24 16:28N 38°13' E 015°36'2 1.2
2014-Oct-24 14:33N 38°11' E 015°35'1 0.5
2014-Oct-24 12:33N 38°10' E 015°35'3 2.7
2014-Oct-24 11:34N 38°11' E 015°38'2 1.1
2014-Oct-24 09:33N 38°13' E 015°38'6 4.0
2014-Oct-24 08:06N 38°09' E 015°33'5 8.6
2014-Oct-24 07:33N 38°13' E 015°36'0 0.0
2014-Oct-23 16:32N 38°13' E 015°36'2 1.0
2014-Oct-23 14:32N 38°11' E 015°35'2 1.6
2014-Oct-23 13:33N 38°10' E 015°37'3 2.3
2014-Oct-23 12:27N 38°09' E 015°34'4 4.4
2014-Oct-23 11:33N 38°12' E 015°37'1 0.6
2014-Oct-23 09:33N 38°13' E 015°38'1 0.7
2014-Oct-23 07:32N 38°13' E 015°36'0 0.1
2014-Oct-23 05:25N 38°13' E 015°36'5 0.4
2014-Oct-22 17:16N 38°09' E 015°33'6 7.9
2014-Oct-22 16:33N 38°13' E 015°37'5 3.6
2014-Oct-22 15:07N 38°09' E 015°33'5 7.5
2014-Oct-22 14:31N 38°13' E 015°36'3 1.6
2014-Oct-22 12:32N 38°10' E 015°35'4 4.3
2014-Oct-22 11:33N 38°13' E 015°38'1 0.6
2014-Oct-22 09:32N 38°13' E 015°37'0 0.0
2014-Oct-22 07:25N 38°13' E 015°37'2 1.2
2014-Oct-22 05:33N 38°11' E 015°35'3 0.6
2014-Oct-22 00:16N 38°13' E 015°38'1 1.3
2014-Oct-21 23:33N 38°13' E 015°37'6 4.8
2014-Oct-21 22:19N 38°08' E 015°32'7 9.1
2014-Oct-21 21:33N 38°13' E 015°38'5 2.5
2014-Oct-21 19:29N 38°09' E 015°34'4 4.6
2014-Oct-21 18:33N 38°13' E 015°37'5 4.5
2014-Oct-21 17:24N 38°09' E 015°33'6 6.2
2014-Oct-21 16:25N 38°13' E 015°38'1 0.4
2014-Oct-21 14:32N 38°13' E 015°37'4 2.2
2014-Oct-21 12:33N 38°09' E 015°34'5 5.1
2014-Oct-21 11:33N 38°13' E 015°38'6 3.9
2014-Oct-21 10:05N 38°09' E 015°33'610.1
2014-Oct-21 09:32N 38°13' E 015°38'1 0.6
2014-Oct-21 07:31N 38°13' E 015°36'  
Track history (hours):
 
Tides and Currents Weather Stations Pressure Air Temp Water Temp Dewpoint Dewpoint Depression Visibility Wind Speed Wind Dir Waves Ship Positions

Archimede

Last reported at 2014-Oct-31 07:31 UTC. Time now 2014-Oct-31 08:26 UTC.
Position N 38°09' E 015°36'.

; draft 3.1 m.

Type: Ship. MMSI: 247054700.

Date/timePositionNaut miles runAvg speedWind from/ knotsBaromVisibWave heightAir tempDewpointWater temp
2014-Oct-31 07:31N 38°09' E 015°36'2 1.6
2014-Oct-31 06:34N 38°11' E 015°35'2 0.1
2014-Oct-30 17:30N 38°11' E 015°37'4 3.6
2014-Oct-30 16:20N 38°08' E 015°33'6 8.3
2014-Oct-30 15:33N 38°13' E 015°38'0 0.0
2014-Oct-30 10:24N 38°13' E 015°38'1 0.8
2014-Oct-30 08:32N 38°13' E 015°36'1 1.3
2014-Oct-30 07:33N 38°13' E 015°38'2 0.8
2014-Oct-30 05:31N 38°13' E 015°36'1 0.1
2014-Oct-29 18:33N 38°13' E 015°37'1 0.7
2014-Oct-29 17:33N 38°13' E 015°38'1 0.6
2014-Oct-29 15:31N 38°13' E 015°36'2 1.1
2014-Oct-29 13:31N 38°11' E 015°35'2 1.2
2014-Oct-29 11:24N 38°09' E 015°33'6 7.1
2014-Oct-29 10:33N 38°13' E 015°38'3 2.8
2014-Oct-29 09:23N 38°13' E 015°34'1 1.7
2014-Oct-29 08:33N 38°13' E 015°36'1 1.1
2014-Oct-29 07:33N 38°13' E 015°37'5 4.6
2014-Oct-29 06:25N 38°09' E 015°33'3 0.2
2014-Oct-28 15:32N 38°11' E 015°35'3 1.3
2014-Oct-28 13:33N 38°09' E 015°34'5 5.2
2014-Oct-28 12:30N 38°13' E 015°38'6 4.5
2014-Oct-28 11:10N 38°09' E 015°33'6 9.0
2014-Oct-28 10:33N 38°13' E 015°37'6 3.9
2014-Oct-28 09:04N 38°09' E 015°33'5 9.0
2014-Oct-28 08:32N 38°13' E 015°36'0 0.1
2014-Oct-28 06:30N 38°13' E 015°36'2 0.2
2014-Oct-27 19:06N 38°11' E 015°37'2 0.5
2014-Oct-27 15:33N 38°13' E 015°36'0 0.1
2014-Oct-27 13:25N 38°13' E 015°36'2 1.7
2014-Oct-27 12:27N 38°13' E 015°38'0 0.1
2014-Oct-27 10:33N 38°13' E 015°38'1 0.4
2014-Oct-27 08:30N 38°13' E 015°37'1 0.3
2014-Oct-27 06:32N 38°13' E 015°36'5 0.1
2014-Oct-25 17:06N 38°08' E 015°32'6 8.9
2014-Oct-25 16:29N 38°13' E 015°36'3 1.5
2014-Oct-25 14:33N 38°10' E 015°35'1 0.7
2014-Oct-25 12:26N 38°09' E 015°34'6 6.4
2014-Oct-25 11:33N 38°13' E 015°38'0 0.1
2014-Oct-25 09:33N 38°13' E 015°38'6 3.8
2014-Oct-25 08:03N 38°09' E 015°33'4 8.8
2014-Oct-25 07:33N 38°13' E 015°36'0 0.0
2014-Oct-24 16:28N 38°13' E 015°36'2 1.2
2014-Oct-24 14:33N 38°11' E 015°35'1 0.5
2014-Oct-24 12:33N 38°10' E 015°35'3 2.7
2014-Oct-24 11:34N 38°11' E 015°38'2 1.1
2014-Oct-24 09:33N 38°13' E 015°38'6 4.0
2014-Oct-24 08:06N 38°09' E 015°33'5 8.6
2014-Oct-24 07:33N 38°13' E 015°36'0 0.0
2014-Oct-23 16:32N 38°13' E 015°36'2 1.0
2014-Oct-23 14:32N 38°11' E 015°35'2 1.6
2014-Oct-23 13:33N 38°10' E 015°37'3 2.3
2014-Oct-23 12:27N 38°09' E 015°34'4 4.4
2014-Oct-23 11:33N 38°12' E 015°37'1 0.6
2014-Oct-23 09:33N 38°13' E 015°38'1 0.7
2014-Oct-23 07:32N 38°13' E 015°36'0 0.1
2014-Oct-23 05:25N 38°13' E 015°36'5 0.4
2014-Oct-22 17:16N 38°09' E 015°33'6 7.9
2014-Oct-22 16:33N 38°13' E 015°37'5 3.6
2014-Oct-22 15:07N 38°09' E 015°33'5 7.5
2014-Oct-22 14:31N 38°13' E 015°36'3 1.6
2014-Oct-22 12:32N 38°10' E 015°35'4 4.3
2014-Oct-22 11:33N 38°13' E 015°38'1 0.6
2014-Oct-22 09:32N 38°13' E 015°37'0 0.0
2014-Oct-22 07:25N 38°13' E 015°37'2 1.2
2014-Oct-22 05:33N 38°11' E 015°35'3 0.6
2014-Oct-22 00:16N 38°13' E 015°38'1 1.3
2014-Oct-21 23:33N 38°13' E 015°37'6 4.8
2014-Oct-21 22:19N 38°08' E 015°32'7 9.1
2014-Oct-21 21:33N 38°13' E 015°38'5 2.5
2014-Oct-21 19:29N 38°09' E 015°34'4 4.6
2014-Oct-21 18:33N 38°13' E 015°37'5 4.5
2014-Oct-21 17:24N 38°09' E 015°33'6 6.2
2014-Oct-21 16:25N 38°13' E 015°38'1 0.4
2014-Oct-21 14:32N 38°13' E 015°37'4 2.2
2014-Oct-21 12:33N 38°09' E 015°34'5 5.1
2014-Oct-21 11:33N 38°13' E 015°38'6 3.9
2014-Oct-21 10:05N 38°09' E 015°33'610.1
2014-Oct-21 09:32N 38°13' E 015°38'1 0.6
2014-Oct-21 07:31N 38°13' E 015°36'  

Dump ship's entire track history